David, David Enrique Malek International Airport (MPDA)

NameDavid Enrique Malek International Airport
CityDavid
CountryPanama
ICAOMPDA
IATADAV
Altitude27 m
CoordinatesGoogle Map
Live Air TrafficLiveATC.net
METARMPDA 210000Z 23004KT 9999 FEW018 29/26 Q1006
2019-07-21 00:00:00 Wind: Southwest (230°) 2.06 m/s - Visibility: > 10000 m - Temperature: 29 °C - Dew point: 26 °C - Humidity: 83.9% - Pressure: 1006 hPa
Statistics

The table below shows the detailed information of all flights to/from David, David Enrique Malek International Airport (MPDA).

Ident Aircraft Coming fromFrom Going toTo Owner nameOwnerSpotted durationDurationDate
HP-2888 - B350 - Amapola Flyg Amapola Flyg HP2888 RAYTHEON 300 (B300) Super King Air 350 B350 David, Panama (MPDA) MPDA
2176 km
Panama, Panama (MPMG) MPMG
2134 km
- - 00:24:45 00:24:45 Mon, 08 Jul 2019 14:23:04 +0000 8/7/2019 2:23 pm
Mon, 08 Jul 2019 14:47:49 +0000 8/7/2019 2:47 pm
HP-2888 - B350 - Amapola Flyg Amapola Flyg HP2888 RAYTHEON 300 (B300) Super King Air 350 B350 David, Panama (MPDA) MPDA
1920 km
Panama, Panama (MPMG) MPMG
1851 km
- - 00:17:55 00:17:55 Sun, 07 Jul 2019 15:32:13 +0000 7/7/2019 3:32 pm
Sun, 07 Jul 2019 15:50:08 +0000 7/7/2019 3:50 pm
HP-2888 - B350 - Amapola Flyg Amapola Flyg HP2888 RAYTHEON 300 (B300) Super King Air 350 B350 David, Panama (MPDA) MPDA
1446 km
Panama, Panama (MPMG) MPMG
1387 km
- - 00:18:29 00:18:29 Sun, 07 Jul 2019 14:31:59 +0000 7/7/2019 2:31 pm
Sun, 07 Jul 2019 14:50:28 +0000 7/7/2019 2:50 pm